Time;durP1;ratioP1;P1;durP2;ratioP2;P2;SDS_P1;SDS_P2;PMS_P1;PMS_P2;Temp;Humidity;BMP_temperature;BMP_pressure;BME280_temperature;BME280_humidity;BME280_pressure;Samples;Min_cycle;Max_cycle;Signal;HPM_P1;HPM_P2
2023/07/20 00:01:07;;;;;;;2.50;2.30;;;;;;;;;;5032139;28;20272;-74
2023/07/20 00:03:33;;;;;;;4.33;2.23;;;;;;;;;;5037361;28;20182;-74
2023/07/20 00:05:58;;;;;;;3.50;2.50;;;;;;;;;;5038347;28;20182;-74
2023/07/20 00:08:23;;;;;;;2.57;2.37;;;;;;;;;;5038786;28;20177;-74
2023/07/20 00:10:49;;;;;;;2.93;2.50;;;;;;;;;;5039584;28;20267;-74
2023/07/20 00:13:15;;;;;;;2.70;2.50;;;;;;;;;;5039962;28;20272;-74
2023/07/20 00:15:41;;;;;;;3.53;2.77;;;;;;;;;;5034966;28;20208;-75
2023/07/20 00:18:06;;;;;;;4.87;2.60;;;;;;;;;;5036074;28;20185;-74
2023/07/20 00:20:31;;;;;;;3.90;2.37;;;;;;;;;;5040661;28;20188;-74
2023/07/20 00:22:57;;;;;;;4.73;2.43;;;;;;;;;;5032152;28;20302;-74
2023/07/20 00:25:23;;;;;;;4.10;2.50;;;;;;;;;;5039127;28;20284;-74
2023/07/20 00:27:48;;;;;;;2.40;2.20;;;;;;;;;;5041630;28;20182;-74
2023/07/20 00:30:14;;;;;;;3.90;2.40;;;;;;;;;;5037235;28;20307;-74
2023/07/20 00:32:39;;;;;;;7.70;3.50;;;;;;;;;;5040425;28;20209;-74
2023/07/20 00:35:04;;;;;;;3.97;2.77;;;;;;;;;;5052732;28;20177;-74
2023/07/20 00:37:30;;;;;;;7.53;2.60;;;;;;;;;;5046901;28;20199;-74
2023/07/20 00:39:55;;;;;;;2.47;2.23;;;;;;;;;;5042580;28;20190;-74
2023/07/20 00:42:20;;;;;;;2.43;2.10;;;;;;;;;;5036507;28;20194;-74
2023/07/20 00:44:45;;;;;;;3.90;2.40;;;;;;;;;;5047345;28;20214;-74
2023/07/20 00:47:10;;;;;;;3.13;2.60;;;;;;;;;;5046064;28;20192;-74
2023/07/20 00:49:36;;;;;;;5.03;2.43;;;;;;;;;;5050696;28;20229;-74
2023/07/20 00:52:03;;;;;;;3.97;2.47;;;;;;;;;;5047190;28;20247;-74
2023/07/20 00:54:28;;;;;;;3.43;2.53;;;;;;;;;;5040563;28;20201;-74
2023/07/20 00:56:54;;;;;;;3.20;2.20;;;;;;;;;;5038102;28;20254;-74
2023/07/20 00:59:19;;;;;;;4.03;2.17;;;;;;;;;;5037521;28;20182;-74
2023/07/20 01:01:45;;;;;;;3.67;2.80;;;;;;;;;;5041561;28;20228;-74
2023/07/20 01:04:10;;;;;;;3.10;2.50;;;;;;;;;;5041811;28;20184;-74
2023/07/20 01:06:40;;;;;;;4.60;3.00;;;;;;;;;;5040429;28;20224;-74
2023/07/20 01:09:13;;;;;;;3.27;2.10;;;;;;;;;;5043659;28;20183;-74
2023/07/20 01:11:57;;;;;;;3.30;2.50;;;;;;;;;;5035948;28;20183;-74
2023/07/20 01:14:23;;;;;;;2.67;2.23;;;;;;;;;;5046330;28;20267;-74
2023/07/20 01:16:49;;;;;;;2.60;2.40;;;;;;;;;;5048697;28;20283;-74
2023/07/20 01:19:15;;;;;;;3.63;2.30;;;;;;;;;;5040030;28;20199;-74
2023/07/20 01:21:45;;;;;;;2.30;1.83;;;;;;;;;;5041581;28;20287;-74
2023/07/20 01:24:33;;;;;;;4.37;2.40;;;;;;;;;;5044858;28;20188;-74
2023/07/20 01:27:22;;;;;;;2.43;2.23;;;;;;;;;;5042351;28;20290;-74
2023/07/20 01:30:00;;;;;;;3.40;2.60;;;;;;;;;;5043970;28;20281;-74
2023/07/20 01:32:25;;;;;;;4.33;2.13;;;;;;;;;;5038910;28;20229;-74
2023/07/20 01:34:52;;;;;;;2.50;2.30;;;;;;;;;;5043925;28;20183;-74
2023/07/20 01:37:19;;;;;;;5.60;3.00;;;;;;;;;;5038377;28;20187;-74
2023/07/20 01:39:45;;;;;;;2.60;2.40;;;;;;;;;;5036730;28;20210;-74
2023/07/20 01:42:10;;;;;;;3.50;2.80;;;;;;;;;;5041150;28;20203;-74
2023/07/20 01:44:37;;;;;;;4.53;2.60;;;;;;;;;;5038477;28;20187;-74
2023/07/20 01:47:02;;;;;;;3.60;2.47;;;;;;;;;;5037270;28;20242;-74
2023/07/20 01:49:27;;;;;;;3.83;2.33;;;;;;;;;;5046038;28;20187;-74
2023/07/20 01:51:52;;;;;;;4.53;3.00;;;;;;;;;;5049255;28;20182;-74
2023/07/20 01:54:17;;;;;;;4.67;2.43;;;;;;;;;;5042837;28;20212;-74
2023/07/20 01:56:43;;;;;;;5.57;2.57;;;;;;;;;;5044331;28;20180;-74
2023/07/20 01:59:08;;;;;;;2.70;2.40;;;;;;;;;;5034629;28;20229;-74
2023/07/20 02:01:33;;;;;;;2.90;2.23;;;;;;;;;;5038998;28;20236;-74
2023/07/20 02:03:59;;;;;;;5.30;2.50;;;;;;;;;;5038747;28;20186;-74
2023/07/20 02:06:24;;;;;;;2.57;2.30;;;;;;;;;;5043206;28;20189;-74
2023/07/20 02:08:49;;;;;;;3.27;2.60;;;;;;;;;;5045381;28;20249;-74
2023/07/20 02:11:14;;;;;;;2.73;2.43;;;;;;;;;;5043717;28;20230;-74
2023/07/20 02:13:40;;;;;;;2.80;2.60;;;;;;;;;;5047714;28;20296;-74
2023/07/20 02:16:05;;;;;;;3.23;2.40;;;;;;;;;;5042685;28;20178;-74
2023/07/20 02:18:30;;;;;;;3.77;2.60;;;;;;;;;;5044248;28;20178;-74
2023/07/20 02:20:55;;;;;;;2.80;2.23;;;;;;;;;;5038977;28;20186;-74
2023/07/20 02:23:20;;;;;;;3.73;2.53;;;;;;;;;;5039412;28;20178;-74
2023/07/20 02:25:46;;;;;;;3.60;2.20;;;;;;;;;;5039764;28;20184;-74
2023/07/20 02:28:13;;;;;;;2.83;2.50;;;;;;;;;;5040431;28;20186;-74
2023/07/20 02:30:39;;;;;;;3.07;1.97;;;;;;;;;;5039130;28;20244;-74
2023/07/20 02:33:05;;;;;;;4.50;2.40;;;;;;;;;;5042553;28;20179;-74
2023/07/20 02:35:30;;;;;;;4.17;2.80;;;;;;;;;;5043200;28;20171;-74
2023/07/20 02:37:55;;;;;;;3.37;2.73;;;;;;;;;;5041811;28;20190;-74
2023/07/20 02:40:21;;;;;;;3.00;2.40;;;;;;;;;;5043758;28;20170;-74
2023/07/20 02:42:46;;;;;;;3.10;2.50;;;;;;;;;;5040985;28;20222;-74
2023/07/20 02:45:11;;;;;;;3.20;2.40;;;;;;;;;;5042685;28;20182;-74
2023/07/20 02:47:37;;;;;;;3.20;2.60;;;;;;;;;;5044962;28;20189;-75
2023/07/20 02:50:02;;;;;;;5.97;3.17;;;;;;;;;;5035177;28;20200;-74
2023/07/20 02:52:29;;;;;;;2.60;2.30;;;;;;;;;;5035450;28;20197;-75
2023/07/20 02:54:54;;;;;;;2.77;2.03;;;;;;;;;;5038751;28;20242;-75
2023/07/20 02:57:19;;;;;;;3.37;3.07;;;;;;;;;;5045526;28;20181;-74
2023/07/20 02:59:45;;;;;;;4.57;3.00;;;;;;;;;;5041950;28;20255;-74
2023/07/20 03:02:10;;;;;;;3.57;2.27;;;;;;;;;;5040968;28;20208;-74
2023/07/20 03:04:36;;;;;;;4.60;2.80;;;;;;;;;;5041235;28;20182;-74
2023/07/20 03:07:03;;;;;;;5.17;2.60;;;;;;;;;;5041267;28;20249;-75
2023/07/20 03:09:29;;;;;;;3.97;2.47;;;;;;;;;;5039550;28;20171;-74
2023/07/20 03:11:54;;;;;;;3.27;2.70;;;;;;;;;;5039148;28;20215;-74
2023/07/20 03:14:19;;;;;;;2.80;2.50;;;;;;;;;;5042099;28;20183;-74
2023/07/20 03:16:44;;;;;;;5.83;2.60;;;;;;;;;;5039284;28;20280;-75
2023/07/20 03:19:10;;;;;;;4.00;2.40;;;;;;;;;;5047964;28;20178;-74
2023/07/20 03:21:40;;;;;;;3.70;2.43;;;;;;;;;;5040066;28;20283;-74
2023/07/20 03:24:05;;;;;;;4.07;2.60;;;;;;;;;;5042743;28;20185;-74
2023/07/20 03:26:31;;;;;;;4.57;2.83;;;;;;;;;;5036918;28;20184;-74
2023/07/20 03:28:56;;;;;;;3.17;2.50;;;;;;;;;;5035389;28;20173;-74
2023/07/20 03:31:21;;;;;;;3.37;2.30;;;;;;;;;;5037727;28;20173;-75
2023/07/20 03:33:46;;;;;;;4.03;2.47;;;;;;;;;;5039149;28;20200;-74
2023/07/20 03:36:12;;;;;;;2.93;2.67;;;;;;;;;;5037538;28;20183;-74
2023/07/20 03:38:37;;;;;;;3.90;2.57;;;;;;;;;;5040101;28;20190;-74
2023/07/20 03:41:02;;;;;;;2.50;2.30;;;;;;;;;;5036582;28;20194;-74
2023/07/20 03:43:28;;;;;;;3.87;2.93;;;;;;;;;;5040579;28;20184;-74
2023/07/20 03:45:53;;;;;;;5.37;2.67;;;;;;;;;;5032755;28;20310;-74
2023/07/20 03:48:19;;;;;;;5.17;2.60;;;;;;;;;;5038828;28;20196;-74
2023/07/20 03:50:45;;;;;;;3.83;2.77;;;;;;;;;;5036805;28;20180;-74
2023/07/20 03:53:10;;;;;;;4.50;2.60;;;;;;;;;;5038145;28;20206;-74
2023/07/20 03:55:35;;;;;;;3.17;2.83;;;;;;;;;;5043093;28;20176;-74
2023/07/20 03:58:01;;;;;;;6.00;2.60;;;;;;;;;;5039704;28;20175;-74
2023/07/20 04:00:26;;;;;;;3.13;2.83;;;;;;;;;;5041660;28;20234;-74
2023/07/20 04:02:52;;;;;;;5.90;2.97;;;;;;;;;;5038897;28;20211;-74
2023/07/20 04:05:17;;;;;;;4.47;2.80;;;;;;;;;;5041254;28;20174;-74
2023/07/20 04:07:42;;;;;;;2.60;2.40;;;;;;;;;;5032600;28;20269;-74
2023/07/20 04:10:08;;;;;;;3.97;2.83;;;;;;;;;;5041089;28;20176;-74
2023/07/20 04:12:33;;;;;;;2.70;2.50;;;;;;;;;;5042652;28;20225;-74
2023/07/20 04:14:58;;;;;;;2.43;2.23;;;;;;;;;;5035595;28;20199;-74
2023/07/20 04:17:23;;;;;;;3.13;2.60;;;;;;;;;;5040470;28;20181;-74
2023/07/20 04:19:48;;;;;;;4.13;2.90;;;;;;;;;;5039850;28;20192;-74
2023/07/20 04:22:15;;;;;;;4.33;2.70;;;;;;;;;;5045374;28;20257;-74
2023/07/20 04:24:41;;;;;;;5.17;3.43;;;;;;;;;;5041038;28;20205;-74
2023/07/20 04:27:06;;;;;;;2.77;2.50;;;;;;;;;;5041145;28;20214;-74
2023/07/20 04:29:31;;;;;;;4.53;2.87;;;;;;;;;;5039428;28;20283;-75
2023/07/20 04:31:57;;;;;;;3.03;2.50;;;;;;;;;;5036604;28;20188;-75
2023/07/20 04:34:22;;;;;;;3.40;2.57;;;;;;;;;;5046467;28;20268;-75
2023/07/20 04:36:47;;;;;;;3.80;2.40;;;;;;;;;;5033913;28;20185;-75
2023/07/20 04:39:12;;;;;;;2.87;2.53;;;;;;;;;;5035527;28;20189;-75
2023/07/20 04:41:38;;;;;;;4.50;2.40;;;;;;;;;;5036580;28;20196;-75
2023/07/20 04:44:03;;;;;;;6.23;3.13;;;;;;;;;;5036924;28;20176;-75
2023/07/20 04:46:28;;;;;;;4.13;2.57;;;;;;;;;;5033759;28;20189;-75
2023/07/20 04:48:53;;;;;;;4.23;2.73;;;;;;;;;;5038400;28;20199;-75
2023/07/20 04:51:20;;;;;;;3.10;2.80;;;;;;;;;;5045244;28;20184;-76
2023/07/20 04:53:46;;;;;;;3.93;2.57;;;;;;;;;;5037540;28;20288;-76
2023/07/20 04:56:11;;;;;;;6.67;2.93;;;;;;;;;;5036350;28;20271;-74
2023/07/20 04:58:36;;;;;;;4.13;2.70;;;;;;;;;;5040463;28;20185;-74
2023/07/20 05:01:02;;;;;;;3.10;2.40;;;;;;;;;;5035861;28;20312;-74
2023/07/20 05:03:27;;;;;;;2.53;2.33;;;;;;;;;;5043028;28;20187;-74
2023/07/20 05:05:53;;;;;;;6.90;3.00;;;;;;;;;;5037333;28;20180;-74
2023/07/20 05:08:18;;;;;;;5.20;2.60;;;;;;;;;;5043334;28;20183;-74
2023/07/20 05:10:43;;;;;;;3.67;2.40;;;;;;;;;;5040020;28;20222;-74
2023/07/20 05:13:08;;;;;;;2.97;2.30;;;;;;;;;;5037489;28;20206;-74
2023/07/20 05:15:34;;;;;;;3.00;2.43;;;;;;;;;;5044064;28;20179;-74
2023/07/20 05:18:00;;;;;;;5.10;2.70;;;;;;;;;;5042891;28;20216;-74
2023/07/20 05:20:25;;;;;;;3.33;2.37;;;;;;;;;;5041331;28;20248;-74
2023/07/20 05:22:50;;;;;;;2.50;2.30;;;;;;;;;;5044333;28;20207;-74
2023/07/20 05:25:18;;;;;;;3.23;2.60;;;;;;;;;;5044061;28;20174;-74
2023/07/20 05:27:43;;;;;;;4.57;2.63;;;;;;;;;;5040664;28;20179;-74
2023/07/20 05:30:09;;;;;;;2.80;2.37;;;;;;;;;;5037295;28;20194;-74
2023/07/20 05:32:34;;;;;;;3.77;2.80;;;;;;;;;;5035761;28;20179;-74
2023/07/20 05:34:59;;;;;;;5.20;2.67;;;;;;;;;;5042463;28;20274;-74
2023/07/20 05:37:24;;;;;;;5.00;2.87;;;;;;;;;;5044427;28;20208;-74
2023/07/20 05:39:50;;;;;;;5.27;2.47;;;;;;;;;;5041859;28;20186;-74
2023/07/20 05:42:15;;;;;;;4.47;2.60;;;;;;;;;;5038608;28;20216;-74
2023/07/20 05:44:40;;;;;;;5.53;2.93;;;;;;;;;;5037141;28;20183;-74
2023/07/20 05:47:06;;;;;;;3.07;2.60;;;;;;;;;;5033373;28;20175;-74
2023/07/20 05:49:31;;;;;;;2.90;2.60;;;;;;;;;;5039423;28;20182;-74
2023/07/20 05:51:56;;;;;;;6.17;2.73;;;;;;;;;;5039633;28;20176;-74
2023/07/20 05:54:22;;;;;;;3.23;2.67;;;;;;;;;;5045138;28;20191;-74
2023/07/20 05:56:47;;;;;;;4.17;2.63;;;;;;;;;;5053904;28;20167;-74
2023/07/20 05:59:12;;;;;;;3.50;2.60;;;;;;;;;;5045137;28;20189;-74
2023/07/20 06:01:38;;;;;;;3.80;2.70;;;;;;;;;;5045904;28;20234;-74
2023/07/20 06:04:03;;;;;;;3.97;2.43;;;;;;;;;;5044418;28;20187;-74
2023/07/20 06:06:28;;;;;;;6.13;3.00;;;;;;;;;;5047317;28;20216;-74
2023/07/20 06:08:54;;;;;;;4.00;2.77;;;;;;;;;;5047829;28;20217;-73
2023/07/20 06:11:19;;;;;;;3.70;2.90;;;;;;;;;;5047243;28;20201;-73
2023/07/20 06:13:44;;;;;;;4.00;2.67;;;;;;;;;;5039586;28;20169;-74
2023/07/20 06:16:10;;;;;;;4.03;2.90;;;;;;;;;;5046607;28;20178;-74
2023/07/20 06:18:35;;;;;;;4.87;2.63;;;;;;;;;;5034598;28;20175;-74
2023/07/20 06:21:00;;;;;;;5.00;3.00;;;;;;;;;;5036103;28;20176;-74
2023/07/20 06:23:25;;;;;;;5.13;2.70;;;;;;;;;;5039542;28;20270;-74
2023/07/20 06:25:50;;;;;;;6.27;3.43;;;;;;;;;;5035926;28;20253;-74
2023/07/20 06:28:17;;;;;;;6.17;2.87;;;;;;;;;;5038811;28;20185;-74
2023/07/20 06:30:43;;;;;;;4.40;2.70;;;;;;;;;;5037926;28;20250;-74
2023/07/20 06:33:08;;;;;;;6.27;3.47;;;;;;;;;;5047464;28;20283;-74
2023/07/20 06:35:34;;;;;;;4.00;2.80;;;;;;;;;;5042452;28;20191;-74
2023/07/20 06:38:00;;;;;;;7.80;3.30;;;;;;;;;;5039079;28;20191;-74
2023/07/20 06:40:25;;;;;;;6.43;3.43;;;;;;;;;;5038104;28;20183;-74
2023/07/20 06:42:51;;;;;;;4.37;2.80;;;;;;;;;;5039103;28;20210;-74
2023/07/20 06:45:16;;;;;;;2.90;2.60;;;;;;;;;;5037054;28;20176;-74
2023/07/20 06:47:41;;;;;;;10.27;3.63;;;;;;;;;;5038886;28;20245;-74
2023/07/20 06:50:07;;;;;;;11.13;3.00;;;;;;;;;;5037602;28;20207;-73
2023/07/20 06:52:32;;;;;;;4.30;2.90;;;;;;;;;;5041651;28;20227;-73
2023/07/20 06:54:57;;;;;;;5.43;2.87;;;;;;;;;;5039482;28;20196;-73
2023/07/20 06:57:22;;;;;;;5.80;3.07;;;;;;;;;;5045881;28;20191;-73
2023/07/20 06:59:48;;;;;;;5.23;3.47;;;;;;;;;;5036511;28;20193;-73
2023/07/20 07:02:14;;;;;;;3.97;2.90;;;;;;;;;;5038819;28;20260;-73
2023/07/20 07:04:39;;;;;;;6.27;3.20;;;;;;;;;;5039306;28;20185;-75
2023/07/20 07:07:04;;;;;;;5.17;3.10;;;;;;;;;;5041871;28;20174;-75
2023/07/20 07:09:29;;;;;;;5.53;3.10;;;;;;;;;;5048397;28;20281;-76
2023/07/20 07:11:55;;;;;;;3.73;3.00;;;;;;;;;;5043165;28;20187;-75
2023/07/20 07:14:20;;;;;;;4.00;3.27;;;;;;;;;;5043646;28;20180;-73
2023/07/20 07:16:45;;;;;;;6.23;3.50;;;;;;;;;;5042637;28;20194;-73
2023/07/20 07:19:11;;;;;;;3.70;3.23;;;;;;;;;;5033458;28;20272;-73
2023/07/20 07:21:36;;;;;;;6.40;3.20;;;;;;;;;;5036817;28;20202;-73
2023/07/20 07:24:01;;;;;;;3.70;2.93;;;;;;;;;;5045458;28;20493;-73
2023/07/20 07:26:26;;;;;;;5.80;3.50;;;;;;;;;;5043189;28;20236;-73
2023/07/20 07:28:52;;;;;;;4.60;2.77;;;;;;;;;;5038261;28;20307;-72
2023/07/20 07:31:17;;;;;;;3.23;2.83;;;;;;;;;;5043745;28;20184;-73
2023/07/20 07:33:42;;;;;;;4.53;2.80;;;;;;;;;;5043504;28;20179;-73
2023/07/20 07:36:08;;;;;;;2.87;2.67;;;;;;;;;;5036465;28;20178;-73
2023/07/20 07:38:33;;;;;;;4.47;2.83;;;;;;;;;;5040935;28;20207;-73
2023/07/20 07:40:58;;;;;;;9.60;3.10;;;;;;;;;;5039823;28;20174;-73
2023/07/20 07:43:24;;;;;;;2.80;2.40;;;;;;;;;;5030050;28;20203;-73
2023/07/20 07:45:49;;;;;;;3.43;2.80;;;;;;;;;;5039091;28;20181;-73
2023/07/20 07:48:14;;;;;;;4.13;2.73;;;;;;;;;;5042120;28;20243;-73
2023/07/20 07:50:40;;;;;;;3.20;2.63;;;;;;;;;;5040037;28;20175;-73
2023/07/20 07:53:05;;;;;;;3.50;3.20;;;;;;;;;;5036855;28;20204;-73
2023/07/20 07:55:31;;;;;;;3.20;2.60;;;;;;;;;;5036643;28;20183;-73
2023/07/20 07:57:56;;;;;;;4.27;2.70;;;;;;;;;;5038455;28;20207;-73
2023/07/20 08:00:21;;;;;;;4.90;2.50;;;;;;;;;;5042086;28;20229;-73
2023/07/20 08:02:49;;;;;;;3.60;2.30;;;;;;;;;;5043452;28;20300;-73
2023/07/20 08:05:15;;;;;;;3.70;2.40;;;;;;;;;;5042719;28;20175;-73
2023/07/20 08:07:40;;;;;;;3.90;2.87;;;;;;;;;;5044561;28;20183;-73
2023/07/20 08:10:06;;;;;;;3.07;2.73;;;;;;;;;;5046251;28;20183;-73
2023/07/20 08:12:31;;;;;;;5.30;2.97;;;;;;;;;;5037124;28;20178;-73
2023/07/20 08:14:57;;;;;;;3.60;2.77;;;;;;;;;;5040106;28;20202;-73
2023/07/20 08:17:22;;;;;;;5.20;2.60;;;;;;;;;;5044460;28;20226;-73
2023/07/20 08:19:47;;;;;;;4.87;2.80;;;;;;;;;;5042028;28;20190;-73
2023/07/20 08:22:12;;;;;;;2.93;2.40;;;;;;;;;;5043730;28;20254;-73
2023/07/20 08:24:41;;;;;;;2.03;1.93;;;;;;;;;;5049730;28;20267;-73
2023/07/20 08:27:06;;;;;;;3.83;2.53;;;;;;;;;;5039692;28;20187;-73
2023/07/20 08:29:31;;;;;;;3.30;1.80;;;;;;;;;;5043164;28;20173;-73
2023/07/20 08:31:56;;;;;;;3.10;2.23;;;;;;;;;;5038393;28;20215;-73
2023/07/20 08:34:22;;;;;;;2.97;2.47;;;;;;;;;;5045015;28;20214;-73
2023/07/20 08:36:47;;;;;;;6.57;2.87;;;;;;;;;;5045149;28;20267;-73
2023/07/20 08:39:12;;;;;;;3.00;2.07;;;;;;;;;;5043692;28;20180;-73
2023/07/20 08:41:39;;;;;;;2.37;1.67;;;;;;;;;;5038688;28;20252;-73
2023/07/20 08:44:04;;;;;;;2.40;2.20;;;;;;;;;;5037319;28;20184;-73
2023/07/20 08:46:30;;;;;;;2.70;1.93;;;;;;;;;;5036575;28;20187;-73
2023/07/20 08:48:56;;;;;;;4.40;2.50;;;;;;;;;;5036380;28;20236;-72
2023/07/20 08:51:21;;;;;;;3.83;2.03;;;;;;;;;;5035031;28;20188;-73
2023/07/20 08:53:47;;;;;;;3.13;2.23;;;;;;;;;;5040659;28;20198;-73
2023/07/20 08:56:13;;;;;;;3.03;2.00;;;;;;;;;;5042870;28;20182;-73
2023/07/20 08:58:39;;;;;;;3.00;2.07;;;;;;;;;;5041403;28;20199;-73
2023/07/20 09:01:04;;;;;;;2.87;1.80;;;;;;;;;;5039346;28;20334;-73
2023/07/20 09:03:29;;;;;;;2.90;2.00;;;;;;;;;;5045778;28;20241;-73
2023/07/20 09:05:55;;;;;;;1.73;1.60;;;;;;;;;;5045256;28;20190;-73
2023/07/20 09:08:20;;;;;;;2.30;1.63;;;;;;;;;;5045228;28;20210;-73
2023/07/20 09:10:45;;;;;;;3.67;1.87;;;;;;;;;;5042328;28;20181;-73
2023/07/20 09:13:14;;;;;;;8.30;2.30;;;;;;;;;;5038733;28;20194;-72
2023/07/20 09:15:40;;;;;;;4.57;2.13;;;;;;;;;;5046126;28;20186;-73
2023/07/20 09:18:05;;;;;;;2.43;1.90;;;;;;;;;;5047211;28;20186;-73
2023/07/20 09:20:32;;;;;;;4.50;1.73;;;;;;;;;;5044071;28;20213;-72
2023/07/20 09:22:57;;;;;;;1.93;1.70;;;;;;;;;;5042987;28;20210;-73
2023/07/20 09:25:23;;;;;;;2.53;1.77;;;;;;;;;;5042984;28;20174;-73
2023/07/20 09:27:49;;;;;;;2.83;1.90;;;;;;;;;;5038164;28;20186;-73
2023/07/20 09:30:15;;;;;;;2.17;1.70;;;;;;;;;;5044166;28;20192;-73
2023/07/20 09:32:44;;;;;;;1.70;1.60;;;;;;;;;;5044424;28;20220;-73
2023/07/20 09:35:14;;;;;;;3.67;1.93;;;;;;;;;;5042951;28;20183;-73
2023/07/20 09:37:40;;;;;;;2.07;1.97;;;;;;;;;;5039277;28;20174;-75
2023/07/20 09:40:06;;;;;;;2.20;1.83;;;;;;;;;;5039730;28;20182;-75
2023/07/20 09:42:31;;;;;;;2.30;1.77;;;;;;;;;;5041669;28;20199;-73
2023/07/20 09:44:57;;;;;;;2.43;1.77;;;;;;;;;;5035864;28;20178;-73
2023/07/20 09:47:22;;;;;;;1.60;1.50;;;;;;;;;;5038188;28;20176;-73
2023/07/20 09:49:47;;;;;;;2.27;1.80;;;;;;;;;;5039839;28;20180;-73
2023/07/20 09:52:13;;;;;;;2.93;1.90;;;;;;;;;;5042803;28;20226;-73
2023/07/20 09:54:38;;;;;;;1.90;1.27;;;;;;;;;;5042557;28;20195;-73
2023/07/20 09:57:06;;;;;;;3.80;1.70;;;;;;;;;;5038411;28;20185;-73
2023/07/20 09:59:32;;;;;;;2.77;2.00;;;;;;;;;;5038137;28;20176;-73
2023/07/20 10:01:58;;;;;;;3.10;1.80;;;;;;;;;;5038220;28;20232;-74
2023/07/20 10:04:23;;;;;;;11.70;2.57;;;;;;;;;;5038824;28;20275;-73
2023/07/20 10:06:49;;;;;;;3.77;1.50;;;;;;;;;;5034044;28;20278;-73
2023/07/20 10:09:15;;;;;;;2.83;2.23;;;;;;;;;;5046362;28;20234;-73
2023/07/20 10:11:41;;;;;;;2.27;1.80;;;;;;;;;;5043954;28;20185;-72
2023/07/20 10:14:10;;;;;;;2.33;1.47;;;;;;;;;;5042560;28;20171;-73
2023/07/20 10:16:39;;;;;;;1.57;1.47;;;;;;;;;;5044006;28;20253;-73
2023/07/20 10:19:11;;;;;;;3.07;1.83;;;;;;;;;;5039345;28;20186;-73
2023/07/20 10:21:40;;;;;;;1.63;1.50;;;;;;;;;;5041964;28;20245;-72
2023/07/20 10:24:05;;;;;;;3.22;1.80;;;;;;;;;;5044741;28;20181;-81
2023/07/20 10:26:31;;;;;;;1.60;1.50;;;;;;;;;;5038321;28;20201;-80
2023/07/20 10:28:57;;;;;;;1.70;1.60;;;;;;;;;;5038499;28;20228;-81
2023/07/20 10:31:23;;;;;;;5.63;2.07;;;;;;;;;;5045526;28;20159;-81
2023/07/20 10:33:50;;;;;;;1.80;1.43;;;;;;;;;;5042174;28;20173;-81
2023/07/20 10:36:15;;;;;;;2.27;1.80;;;;;;;;;;5043052;28;20181;-81
2023/07/20 10:38:46;;;;;;;5.27;2.30;;;;;;;;;;5038990;28;20177;-81
2023/07/20 10:41:24;;;;;;;1.77;1.60;;;;;;;;;;5040576;28;20178;-81
2023/07/20 10:43:50;;;;;;;2.23;1.63;;;;;;;;;;5036596;28;20193;-81
2023/07/20 10:46:33;;;;;;;2.33;1.83;;;;;;;;;;5045209;28;20185;-81
2023/07/20 10:48:59;;;;;;;3.17;1.90;;;;;;;;;;5056358;28;20179;-81
2023/07/20 10:51:24;;;;;;;1.77;1.40;;;;;;;;;;5039572;28;20177;-81
2023/07/20 10:53:50;;;;;;;1.77;1.65;;;;;;;;;;5041131;28;20245;-81
2023/07/20 10:56:20;;;;;;;5.25;1.67;;;;;;;;;;5040809;28;20265;-82
2023/07/20 10:58:46;;;;;;;2.00;1.80;;;;;;;;;;5038184;28;20171;-81
2023/07/20 11:01:16;;;;;;;1.55;1.45;;;;;;;;;;5041699;28;20237;-82
2023/07/20 11:03:42;;;;;;;1.80;1.65;;;;;;;;;;5039954;28;20206;-81
2023/07/20 11:06:25;;;;;;;1.80;1.63;;;;;;;;;;5040803;28;20232;-81
2023/07/20 11:09:16;;;;;;;1.98;1.80;;;;;;;;;;5037325;28;20287;-81
2023/07/20 11:11:46;;;;;;;2.20;1.63;;;;;;;;;;5042756;28;20241;-81
2023/07/20 11:14:21;;;;;;;3.00;1.60;;;;;;;;;;5042702;28;20206;-81
2023/07/20 11:16:47;;;;;;;1.77;1.67;;;;;;;;;;5041292;28;20170;-81
2023/07/20 11:19:16;;;;;;;3.38;1.90;;;;;;;;;;5042765;28;20174;-81
2023/07/20 11:21:42;;;;;;;1.40;1.30;;;;;;;;;;5039349;28;20203;-81
2023/07/20 11:24:07;;;;;;;2.83;1.50;;;;;;;;;;5041592;28;20178;-81
2023/07/20 11:26:41;;;;;;;2.65;1.60;;;;;;;;;;5035453;28;20224;-81
2023/07/20 11:29:06;;;;;;;1.92;1.73;;;;;;;;;;5038757;28;20178;-81
2023/07/20 11:31:34;;;;;;;3.22;1.83;;;;;;;;;;5034285;28;20174;-81
2023/07/20 11:33:59;;;;;;;3.10;1.67;;;;;;;;;;5041957;28;20178;-81
2023/07/20 11:36:25;;;;;;;2.20;1.50;;;;;;;;;;5038979;28;20178;-82
2023/07/20 11:38:51;;;;;;;2.20;2.00;;;;;;;;;;5039112;28;20190;-81
2023/07/20 11:41:16;;;;;;;1.98;1.75;;;;;;;;;;5041239;28;20178;-81
2023/07/20 11:43:42;;;;;;;2.00;1.75;;;;;;;;;;5040992;28;20221;-81
2023/07/20 11:46:07;;;;;;;1.65;1.55;;;;;;;;;;5041467;28;20187;-81
2023/07/20 11:48:32;;;;;;;1.95;1.58;;;;;;;;;;5036485;28;20170;-81
2023/07/20 11:50:57;;;;;;;1.98;1.63;;;;;;;;;;5044080;28;20194;-80
2023/07/20 11:53:24;;;;;;;2.08;1.88;;;;;;;;;;5041518;28;20284;-81
2023/07/20 11:55:49;;;;;;;1.60;1.50;;;;;;;;;;5043260;28;20290;-81
2023/07/20 11:58:17;;;;;;;2.10;1.90;;;;;;;;;;5040692;28;20211;-82
2023/07/20 12:00:44;;;;;;;3.65;1.80;;;;;;;;;;5045477;28;20301;-82
2023/07/20 12:03:10;;;;;;;2.92;1.45;;;;;;;;;;5039076;28;20213;-82
2023/07/20 12:05:36;;;;;;;2.33;1.73;;;;;;;;;;5039309;28;20231;-82
2023/07/20 12:08:01;;;;;;;2.17;1.98;;;;;;;;;;5038432;28;20182;-81
2023/07/20 12:10:28;;;;;;;2.50;1.80;;;;;;;;;;5046445;28;20181;-82
2023/07/20 12:12:53;;;;;;;3.55;1.95;;;;;;;;;;5039723;28;20183;-82
2023/07/20 12:15:23;;;;;;;2.17;1.70;;;;;;;;;;5043674;28;20173;-82
2023/07/20 12:17:55;;;;;;;2.65;1.75;;;;;;;;;;5047449;28;20243;-82
2023/07/20 12:20:35;;;;;;;1.73;1.63;;;;;;;;;;5035299;28;20210;-81
2023/07/20 12:23:10;;;;;;;5.15;1.77;;;;;;;;;;5038169;28;20304;-82
2023/07/20 12:25:39;;;;;;;1.33;1.23;;;;;;;;;;5044947;28;20216;-82
2023/07/20 12:28:14;;;;;;;1.90;1.75;;;;;;;;;;5034268;28;20175;-82
2023/07/20 12:30:40;;;;;;;3.08;1.67;;;;;;;;;;5041291;28;20220;-82
2023/07/20 12:33:06;;;;;;;1.60;1.50;;;;;;;;;;5053643;28;20179;-81
2023/07/20 12:35:32;;;;;;;2.47;1.65;;;;;;;;;;5039922;28;20205;-82
2023/07/20 12:37:57;;;;;;;2.75;1.75;;;;;;;;;;5042987;28;20183;-81
2023/07/20 12:40:22;;;;;;;3.38;1.63;;;;;;;;;;5042223;28;20209;-81
2023/07/20 12:42:48;;;;;;;3.72;1.77;;;;;;;;;;5044634;28;20214;-81
2023/07/20 12:45:13;;;;;;;5.57;2.05;;;;;;;;;;5041827;28;20308;-81
2023/07/20 12:47:38;;;;;;;4.22;1.80;;;;;;;;;;5042767;28;20183;-82
2023/07/20 12:50:06;;;;;;;2.05;1.60;;;;;;;;;;5048012;28;20276;-82
2023/07/20 12:52:31;;;;;;;1.95;1.67;;;;;;;;;;5044758;28;20271;-82
2023/07/20 12:54:56;;;;;;;3.53;1.80;;;;;;;;;;5039882;28;20171;-82
2023/07/20 12:57:22;;;;;;;1.80;1.60;;;;;;;;;;5043614;28;20178;-82
2023/07/20 12:59:47;;;;;;;8.20;1.90;;;;;;;;;;5038073;28;20225;-82
2023/07/20 13:02:13;;;;;;;2.28;2.08;;;;;;;;;;5045392;28;20217;-81
2023/07/20 13:04:38;;;;;;;2.13;1.73;;;;;;;;;;5036096;28;20229;-82
2023/07/20 13:07:03;;;;;;;1.52;1.42;;;;;;;;;;5042836;28;20175;-82
2023/07/20 13:09:28;;;;;;;3.05;1.80;;;;;;;;;;5043983;28;20215;-82
2023/07/20 13:11:54;;;;;;;1.75;1.58;;;;;;;;;;5041261;28;20186;-82
2023/07/20 13:14:19;;;;;;;2.05;1.90;;;;;;;;;;5041956;28;20174;-82
2023/07/20 13:16:44;;;;;;;1.90;1.60;;;;;;;;;;5043912;28;20182;-82
2023/07/20 13:19:10;;;;;;;3.15;2.15;;;;;;;;;;5046215;28;20197;-81
2023/07/20 13:21:35;;;;;;;6.63;2.40;;;;;;;;;;5044039;28;20182;-82
2023/07/20 13:24:00;;;;;;;2.30;2.10;;;;;;;;;;5043424;28;20178;-82
2023/07/20 13:26:25;;;;;;;3.38;2.10;;;;;;;;;;5044446;28;20167;-82
2023/07/20 13:28:51;;;;;;;2.75;1.80;;;;;;;;;;5048492;28;20186;-82
2023/07/20 13:31:17;;;;;;;4.55;2.00;;;;;;;;;;5042883;28;20175;-82
2023/07/20 13:33:42;;;;;;;2.33;1.90;;;;;;;;;;5046604;28;20178;-82
2023/07/20 13:36:07;;;;;;;2.30;1.63;;;;;;;;;;5042421;28;20229;-82
2023/07/20 13:38:32;;;;;;;2.45;1.60;;;;;;;;;;5044329;28;20174;-81
2023/07/20 13:40:58;;;;;;;2.70;1.90;;;;;;;;;;5037724;28;20206;-82
2023/07/20 13:43:23;;;;;;;3.05;1.67;;;;;;;;;;5038057;28;20200;-82
2023/07/20 13:45:48;;;;;;;2.67;1.60;;;;;;;;;;5048148;28;20240;-81
2023/07/20 13:48:14;;;;;;;2.10;1.80;;;;;;;;;;5043860;28;20171;-82
2023/07/20 13:50:39;;;;;;;2.20;1.77;;;;;;;;;;5045678;28;20225;-82
2023/07/20 13:53:04;;;;;;;1.83;1.40;;;;;;;;;;5043659;28;20190;-82
2023/07/20 13:55:30;;;;;;;5.68;1.80;;;;;;;;;;5039069;28;20171;-82
2023/07/20 13:57:56;;;;;;;1.63;1.52;;;;;;;;;;5043197;28;20193;-82
2023/07/20 14:00:21;;;;;;;2.13;1.73;;;;;;;;;;5037469;28;20222;-82
2023/07/20 14:02:46;;;;;;;2.10;1.90;;;;;;;;;;5040784;28;20240;-81
2023/07/20 14:05:11;;;;;;;1.70;1.60;;;;;;;;;;5039326;28;20163;-81
2023/07/20 14:07:37;;;;;;;2.63;2.20;;;;;;;;;;5048778;28;20203;-81
2023/07/20 14:10:02;;;;;;;2.53;2.00;;;;;;;;;;5033520;28;20183;-81
2023/07/20 14:12:28;;;;;;;4.22;1.80;;;;;;;;;;5041389;28;20187;-74
2023/07/20 14:14:54;;;;;;;1.90;1.77;;;;;;;;;;5037539;28;20178;-74
2023/07/20 14:17:19;;;;;;;7.35;3.13;;;;;;;;;;5040843;28;20265;-74
2023/07/20 14:19:44;;;;;;;7.07;3.15;;;;;;;;;;5037390;28;20207;-74
2023/07/20 14:22:09;;;;;;;13.20;2.00;;;;;;;;;;5039940;28;20199;-74
2023/07/20 14:24:34;;;;;;;2.25;1.92;;;;;;;;;;5043013;28;20186;-75
2023/07/20 14:27:00;;;;;;;10.63;3.30;;;;;;;;;;5038109;28;20174;-74
2023/07/20 14:29:26;;;;;;;2.70;1.80;;;;;;;;;;5040893;28;20178;-74
2023/07/20 14:31:52;;;;;;;5.25;2.08;;;;;;;;;;5040983;28;20189;-74
2023/07/20 14:34:18;;;;;;;3.20;1.88;;;;;;;;;;5038049;28;20182;-74
2023/07/20 14:36:44;;;;;;;1.88;1.65;;;;;;;;;;5039664;28;20195;-74